Startpagina
METAR-TAF:

METAR-TAF

Vliegvelden :

Vliegbasis Kleine-Brogel

Peer, België

breedte: 51-10N, lengte: 005-28E, hoogte: 55 m

Actueel weer

Dit bericht is 38 minuten geleden gemaakt, om 13:55 UTC
Wind 17 kt uit het westzuidwesten
Temperatuur 22°C
Vochtigheid 65%
Druk 1013 hPa
Zicht 10 km of meer
Gebroken wolken op 3000 ft
Gebroken wolken op 5500 ft

METAR: EBBL 091355Z 24017KT 9999 BKN030 BKN055 22/15 Q1013 BLU BLU

Tijdstip: 16:33 (14:33 UTC)

Verwachting

Dit bericht is 2 uur en het 52 minuten geleden gemaakt, om 11:41 UTC
Verwachting geldig van 09 om 13 UTC tot 09 om 22 UTC
Wind 10 kt uit het zuidwesten
Zicht 10 km of meer
Gebroken wolken op 3000 ft
Wijzigt naar
van 09 om 14 UTC tot 09 om 16 UTC
Wind 8 kt uit het westnoordwesten
Zicht 10 km of meer
Gebroken wolken op 5000 ft

TAF: EBBL 091141Z 0913/0922 23010KT 9999 BKN030 BECMG 0914/0916 30008KT 9999 BKN050

Waarnemingen en weersverwachtingen van meer dan 4000 vliegvelden (METAR en TAF).

De beschikbare stations zijn de gele en rode punten op de kaart.

Ga met uw muis naar het station om de naam te zien.

Klik dan om waarnemingen en weersverwachtingen te zien.

kaart wijzigen: klik op de groene knoppen met een zwart kruis om in te zoomen, op de groene knop met een streepje om uit te zoomen of op de groene pijlen voor aangrenzende kaarten.


METAR-TAF: